Time;durP1;ratioP1;P1;durP2;ratioP2;P2;SDS_P1;SDS_P2;PMS_P1;PMS_P2;Temp;Humidity;BMP_temperature;BMP_pressure;BME280_temperature;BME280_humidity;BME280_pressure;Samples;Min_cycle;Max_cycle;Signal;HPM_P1;HPM_P2
2022/07/04 00:01:26;;;;;;;0.00;0.00;;;20.20;99.90;;;;;;5089311;28;20198;-71
2022/07/04 00:03:54;;;;;;;0.00;0.00;;;;;;;;;;5086424;28;20221;-70
2022/07/04 00:06:21;;;;;;;0.00;0.00;;;;;;;;;;5083991;28;20225;-71
2022/07/04 00:08:49;;;;;;;0.00;0.00;;;;;;;;;;5084283;28;20202;-70
2022/07/04 00:11:16;;;;;;;0.00;0.00;;;;;;;;;;5079268;28;20225;-71
2022/07/04 00:13:44;;;;;;;0.00;0.00;;;;;;;;;;5086983;28;20217;-70
2022/07/04 00:16:11;;;;;;;0.00;0.00;;;;;;;;;;5085379;28;20206;-71
2022/07/04 00:18:39;;;;;;;0.00;0.00;;;18.00;99.90;;;;;;5084123;28;20209;-70
2022/07/04 00:21:06;;;;;;;0.00;0.00;;;20.10;99.90;;;;;;5085402;28;20278;-70
2022/07/04 00:23:33;;;;;;;0.00;0.00;;;20.00;99.90;;;;;;5079238;28;20225;-72
2022/07/04 00:26:01;;;;;;;0.00;0.00;;;20.00;99.90;;;;;;5086375;28;20198;-71
2022/07/04 00:28:28;;;;;;;0.00;0.00;;;20.00;99.90;;;;;;5085798;28;20591;-70
2022/07/04 00:30:55;;;;;;;0.00;0.00;;;;;;;;;;5085106;28;20225;-71
2022/07/04 00:33:23;;;;;;;0.00;0.00;;;19.90;99.90;;;;;;5083410;28;20686;-70
2022/07/04 00:35:49;;;;;;;0.00;0.00;;;19.80;99.90;;;;;;5078383;28;20198;-72
2022/07/04 00:38:16;;;;;;;0.00;0.00;;;19.70;99.90;;;;;;5081280;28;20213;-71
2022/07/04 00:40:43;;;;;;;0.00;0.00;;;19.70;99.90;;;;;;5118385;27;20201;-73
2022/07/04 00:43:12;;;;;;;0.00;0.00;;;19.70;99.90;;;;;;5083704;28;20271;-72
2022/07/04 00:45:38;;;;;;;0.00;0.00;;;19.60;99.90;;;;;;5084941;28;20202;-72
2022/07/04 00:48:06;;;;;;;0.00;0.00;;;19.70;99.90;;;;;;5085148;28;20247;-70
2022/07/04 00:50:33;;;;;;;0.00;0.00;;;19.70;99.90;;;;;;5083264;28;20225;-70
2022/07/04 00:53:01;;;;;;;0.00;0.00;;;19.70;99.90;;;;;;5096200;27;20241;-70
2022/07/04 00:55:29;;;;;;;0.00;0.00;;;19.70;99.90;;;;;;5084692;28;20190;-69
2022/07/04 00:57:56;;;;;;;0.00;0.00;;;19.70;99.90;;;;;;5085574;28;20198;-73
2022/07/04 01:00:24;;;;;;;0.00;0.00;;;19.80;99.90;;;;;;5086451;28;20198;-70
2022/07/04 01:02:52;;;;;;;0.00;0.00;;;19.70;99.90;;;;;;5085742;28;20232;-69
2022/07/04 01:05:19;;;;;;;0.00;0.00;;;19.80;99.90;;;;;;5082953;28;20294;-70
2022/07/04 01:07:46;;;;;;;0.00;0.00;;;19.60;99.90;;;;;;5085182;28;20198;-71
2022/07/04 01:10:14;;;;;;;0.00;0.00;;;;;;;;;;5084644;28;20201;-70
2022/07/04 01:12:41;;;;;;;0.00;0.00;;;;;;;;;;5085847;28;20624;-72
2022/07/04 01:15:09;;;;;;;0.00;0.00;;;;;;;;;;5080716;28;20624;-70
2022/07/04 01:17:37;;;;;;;0.00;0.00;;;19.50;99.90;;;;;;5078755;28;20200;-70
2022/07/04 01:20:05;;;;;;;0.00;0.00;;;19.40;99.90;;;;;;5085860;28;20197;-70
2022/07/04 01:22:34;;;;;;;0.00;0.00;;;19.40;99.90;;;;;;5079974;28;20210;-71
2022/07/04 01:25:01;;;;;;;0.00;0.00;;;19.40;99.90;;;;;;5084239;28;20202;-70
2022/07/04 01:27:28;;;;;;;0.00;0.00;;;19.40;99.90;;;;;;5083799;28;20194;-72
2022/07/04 01:29:55;;;;;;;0.00;0.00;;;19.40;99.90;;;;;;5079405;28;20198;-72
2022/07/04 01:32:22;;;;;;;0.00;0.00;;;19.30;99.90;;;;;;5085640;28;20226;-70
2022/07/04 01:34:49;;;;;;;0.00;0.00;;;19.30;99.90;;;;;;5082071;28;20233;-70
2022/07/04 01:37:16;;;;;;;0.00;0.00;;;19.30;99.90;;;;;;5084249;28;20201;-71
2022/07/04 01:39:45;;;;;;;0.00;0.00;;;19.20;99.90;;;;;;5081551;28;20285;-71
2022/07/04 01:42:12;;;;;;;0.00;0.00;;;19.30;99.90;;;;;;5084260;28;20198;-74
2022/07/04 01:44:39;;;;;;;0.00;0.00;;;19.20;99.90;;;;;;5084094;28;20227;-71
2022/07/04 01:47:06;;;;;;;0.00;0.00;;;19.10;99.90;;;;;;5085788;28;20677;-70
2022/07/04 01:49:33;;;;;;;0.00;0.00;;;19.10;99.90;;;;;;5084230;28;20198;-73
2022/07/04 01:52:00;;;;;;;0.00;0.00;;;19.10;99.90;;;;;;5085088;28;20224;-70
2022/07/04 01:54:28;;;;;;;0.00;0.00;;;19.10;99.90;;;;;;5082871;28;20218;-72
2022/07/04 01:56:56;;;;;;;0.00;0.00;;;19.10;99.90;;;;;;5078731;28;20214;-71
2022/07/04 02:01:29;;;;;;;0.00;0.00;;;19.10;99.90;;;;;;5084278;28;20227;-71
2022/07/04 02:02:09;;;;;;;0.00;0.00;;;19.10;99.90;;;;;;5081763;28;20292;-70
2022/07/04 02:04:38;;;;;;;0.00;0.00;;;19.00;99.90;;;;;;5083574;28;20297;-70
2022/07/04 02:07:05;;;;;;;0.00;0.00;;;19.00;99.90;;;;;;5082895;28;20210;-71
2022/07/04 02:09:32;;;;;;;0.00;0.00;;;19.10;99.90;;;;;;5082346;28;20565;-70
2022/07/04 02:14:45;;;;;;;0.00;0.00;;;19.00;99.90;;;;;;5098303;28;20694;-71
2022/07/04 02:17:12;;;;;;;0.00;0.00;;;19.00;99.90;;;;;;5082960;28;20201;-73
2022/07/04 02:19:39;;;;;;;0.00;0.00;;;19.00;99.90;;;;;;5083152;28;20243;-72
2022/07/04 02:22:06;;;;;;;0.00;0.00;;;18.90;99.90;;;;;;5083432;28;20217;-72
2022/07/04 02:24:32;;;;;;;0.00;0.00;;;18.90;99.90;;;;;;5084836;28;20210;-70
2022/07/04 02:27:01;;;;;;;0.00;0.00;;;;;;;;;;5084964;28;20226;-71
2022/07/04 02:29:29;;;;;;;0.00;0.00;;;;;;;;;;5083506;28;20251;-72
2022/07/04 02:31:56;;;;;;;0.00;0.00;;;18.60;99.90;;;;;;5083189;28;20232;-71
2022/07/04 02:34:23;;;;;;;0.00;0.00;;;;;;;;;;5082781;28;20310;-71
2022/07/04 02:36:51;;;;;;;0.00;0.00;;;18.70;99.90;;;;;;5084513;28;20194;-70
2022/07/04 02:39:18;;;;;;;0.00;0.00;;;18.70;99.90;;;;;;5083160;28;20229;-71
2022/07/04 02:41:45;;;;;;;0.00;0.00;;;18.70;99.90;;;;;;5083327;28;20194;-70
2022/07/04 02:44:14;;;;;;;0.00;0.00;;;19.00;99.90;;;;;;5084253;28;20221;-71
2022/07/04 02:46:41;;;;;;;0.00;0.00;;;;;;;;;;5084514;28;20197;-71
2022/07/04 02:49:09;;;;;;;0.00;0.00;;;;;;;;;;5083455;28;20284;-70
2022/07/04 02:51:36;;;;;;;0.00;0.00;;;;;;;;;;5082317;28;20202;-70
2022/07/04 02:54:04;;;;;;;0.00;0.00;;;;;;;;;;5082785;28;20218;-71
2022/07/04 02:56:31;;;;;;;0.00;0.00;;;;;;;;;;5083705;28;20198;-71
2022/07/04 02:58:58;;;;;;;0.00;0.00;;;;;;;;;;5083764;28;20301;-70
2022/07/04 03:01:27;;;;;;;0.00;0.00;;;;;;;;;;5085956;28;20212;-70
2022/07/04 03:03:55;;;;;;;0.00;0.00;;;;;;;;;;5082713;28;20210;-72
2022/07/04 03:06:22;;;;;;;0.00;0.00;;;;;;;;;;5085007;28;20229;-71
2022/07/04 03:08:49;;;;;;;0.00;0.00;;;;;;;;;;5083496;28;20197;-70
2022/07/04 03:11:17;;;;;;;0.00;0.00;;;;;;;;;;5082754;28;20194;-71
2022/07/04 03:13:44;;;;;;;0.00;0.00;;;;;;;;;;5084867;28;20686;-71
2022/07/04 03:16:11;;;;;;;0.00;0.00;;;;;;;;;;5085795;28;20233;-71
2022/07/04 03:18:40;;;;;;;0.00;0.00;;;;;;;;;;5081409;28;20217;-72
2022/07/04 03:21:07;;;;;;;0.00;0.00;;;;;;;;;;5084529;28;20214;-71
2022/07/04 03:23:35;;;;;;;0.00;0.00;;;;;;;;;;5081920;28;20232;-71
2022/07/04 03:26:02;;;;;;;0.00;0.00;;;;;;;;;;5082265;28;20198;-70
2022/07/04 03:28:29;;;;;;;0.00;0.00;;;18.40;99.90;;;;;;5083577;28;20212;-70
2022/07/04 03:30:56;;;;;;;0.00;0.00;;;18.30;99.90;;;;;;5086018;28;20213;-72
2022/07/04 03:33:23;;;;;;;0.00;0.00;;;18.30;99.90;;;;;;5086432;28;20221;-70
2022/07/04 03:35:51;;;;;;;0.00;0.00;;;18.20;99.90;;;;;;5087276;28;20305;-70
2022/07/04 03:38:18;;;;;;;0.00;0.00;;;18.20;99.90;;;;;;5086806;28;20732;-71
2022/07/04 03:40:45;;;;;;;0.00;0.00;;;18.30;99.90;;;;;;5088554;28;20198;-71
2022/07/04 03:43:12;;;;;;;0.00;0.00;;;18.30;99.90;;;;;;5087859;28;20279;-70
2022/07/04 03:45:39;;;;;;;0.00;0.00;;;18.30;99.90;;;;;;5085879;28;20198;-72
2022/07/04 03:48:06;;;;;;;0.00;0.00;;;18.40;99.90;;;;;;5086426;28;20205;-71
2022/07/04 03:50:33;;;;;;;0.00;0.00;;;18.40;99.90;;;;;;5086493;28;20734;-70
2022/07/04 03:53:02;;;;;;;0.00;0.00;;;18.50;99.90;;;;;;5082989;28;20226;-71
2022/07/04 03:55:29;;;;;;;0.00;0.00;;;18.50;99.90;;;;;;5119122;27;20197;-75
2022/07/04 03:57:56;;;;;;;0.00;0.00;;;18.60;99.90;;;;;;5086381;28;20202;-72
2022/07/04 04:00:23;;;;;;;0.00;0.00;;;18.60;99.90;;;;;;5084039;28;20214;-71
2022/07/04 04:02:50;;;;;;;0.00;0.00;;;18.60;99.90;;;;;;5086092;28;20198;-73
2022/07/04 04:05:30;;;;;;;0.00;0.00;;;18.70;99.90;;;;;;5084776;28;20204;-75
2022/07/04 04:07:59;;;;;;;0.00;0.00;;;18.80;99.90;;;;;;5085989;28;20197;-71
2022/07/04 04:10:28;;;;;;;0.00;0.00;;;18.80;99.90;;;;;;5085486;28;20200;-71
2022/07/04 04:12:56;;;;;;;0.00;0.00;;;18.90;99.90;;;;;;5085188;28;20309;-71
2022/07/04 04:15:23;;;;;;;0.00;0.00;;;18.80;99.90;;;;;;5081636;28;20365;-74
2022/07/04 04:17:50;;;;;;;0.00;0.00;;;18.90;99.90;;;;;;5087244;28;20198;-71
2022/07/04 04:20:16;;;;;;;0.00;0.00;;;18.90;99.90;;;;;;5086486;28;20250;-72
2022/07/04 04:22:43;;;;;;;0.00;0.00;;;18.90;99.90;;;;;;5085842;28;20225;-73
2022/07/04 04:25:10;;;;;;;0.00;0.00;;;18.90;99.90;;;;;;5085755;28;20208;-72
2022/07/04 04:27:39;;;;;;;0.00;0.00;;;18.90;99.90;;;;;;5088095;28;20198;-72
2022/07/04 04:30:10;;;;;;;0.00;0.00;;;19.00;99.90;;;;;;5092730;28;20220;-71
2022/07/04 04:32:37;;;;;;;0.00;0.00;;;19.10;99.90;;;;;;5084997;28;20218;-70
2022/07/04 04:35:05;;;;;;;0.00;0.00;;;19.10;99.90;;;;;;5085288;28;20214;-71
2022/07/04 04:37:32;;;;;;;0.00;0.00;;;19.00;99.90;;;;;;5084675;28;20233;-72
2022/07/04 04:39:59;;;;;;;0.00;0.00;;;19.00;99.90;;;;;;5085983;28;20263;-71
2022/07/04 04:42:29;;;;;;;0.00;0.00;;;19.00;99.90;;;;;;5105581;27;20193;-71
2022/07/04 04:45:12;;;;;;;0.00;0.00;;;19.00;99.90;;;;;;5084887;28;20200;-70
2022/07/04 04:47:40;;;;;;;0.00;0.00;;;19.00;99.90;;;;;;5112660;27;20193;-70
2022/07/04 04:50:11;;;;;;;0.00;0.00;;;18.90;99.90;;;;;;5093800;28;20205;-70
2022/07/04 04:52:38;;;;;;;0.00;0.00;;;18.90;99.90;;;;;;5089957;28;20823;-71
2022/07/04 04:55:06;;;;;;;0.00;0.00;;;18.90;99.90;;;;;;5095089;28;20209;-73
2022/07/04 04:57:33;;;;;;;0.00;0.00;;;18.80;99.90;;;;;;5096630;28;20225;-70
2022/07/04 05:00:00;;;;;;;0.00;0.00;;;18.80;99.90;;;;;;5098874;28;20224;-70
2022/07/04 05:02:28;;;;;;;0.00;0.00;;;18.80;99.90;;;;;;5077580;28;20197;-70
2022/07/04 05:04:55;;;;;;;0.00;0.00;;;18.70;99.90;;;;;;5094913;28;20213;-73
2022/07/04 05:07:26;;;;;;;0.00;0.00;;;18.70;99.90;;;;;;5087382;28;20197;-71
2022/07/04 05:10:03;;;;;;;0.00;0.00;;;18.70;99.90;;;;;;5090412;28;20663;-70
2022/07/04 05:12:31;;;;;;;0.00;0.00;;;18.70;99.90;;;;;;5087780;28;20222;-74
2022/07/04 05:15:22;;;;;;;0.00;0.00;;;18.80;99.90;;;;;;5092344;28;20296;-70
2022/07/04 05:17:55;;;;;;;0.00;0.00;;;18.80;99.90;;;;;;5091528;28;20200;-70
2022/07/04 05:20:25;;;;;;;0.00;0.00;;;18.80;99.90;;;;;;5091283;28;20213;-71
2022/07/04 05:22:52;;;;;;;0.00;0.00;;;18.80;99.90;;;;;;5086165;28;20224;-71
2022/07/04 05:25:19;;;;;;;0.00;0.00;;;18.90;99.90;;;;;;5084643;28;20202;-69
2022/07/04 05:27:46;;;;;;;0.00;0.00;;;18.90;99.90;;;;;;5085419;28;20205;-70
2022/07/04 05:30:13;;;;;;;0.00;0.00;;;18.90;99.90;;;;;;5084024;28;20235;-70
2022/07/04 05:32:40;;;;;;;0.00;0.00;;;19.00;99.90;;;;;;5083261;28;20336;-72
2022/07/04 05:35:09;;;;;;;0.00;0.00;;;19.20;99.90;;;;;;5084223;28;20667;-70
2022/07/04 05:37:36;;;;;;;0.00;0.00;;;19.50;99.90;;;;;;5083818;28;20194;-70
2022/07/04 05:40:04;;;;;;;0.00;0.00;;;19.90;99.90;;;;;;5083478;28;20202;-71
2022/07/04 05:42:31;;;;;;;0.00;0.00;;;20.20;99.90;;;;;;5083366;28;20202;-70
2022/07/04 05:44:58;;;;;;;0.00;0.00;;;20.50;99.90;;;;;;5083673;28;20309;-71
2022/07/04 05:47:26;;;;;;;0.00;0.00;;;20.60;99.90;;;;;;5085252;28;20204;-72
2022/07/04 05:49:54;;;;;;;0.00;0.00;;;20.70;99.90;;;;;;5085128;28;20197;-71
2022/07/04 05:52:22;;;;;;;0.00;0.00;;;20.80;99.90;;;;;;5083050;28;20212;-73
2022/07/04 05:54:49;;;;;;;0.00;0.00;;;20.80;99.90;;;;;;5095648;28;20220;-71
2022/07/04 05:57:16;;;;;;;0.00;0.00;;;20.90;99.90;;;;;;5085109;28;20206;-72
2022/07/04 05:59:44;;;;;;;0.00;0.00;;;20.90;99.90;;;;;;5083945;28;20194;-70
2022/07/04 06:02:12;;;;;;;0.00;0.00;;;20.90;99.90;;;;;;5079112;28;20202;-73
2022/07/04 06:04:40;;;;;;;0.00;0.00;;;20.90;99.90;;;;;;5077039;28;20245;-69
2022/07/04 06:07:07;;;;;;;0.00;0.00;;;20.70;99.90;;;;;;5084603;28;20289;-71
2022/07/04 06:09:35;;;;;;;0.00;0.00;;;20.70;99.90;;;;;;5085083;28;20198;-72
2022/07/04 06:12:02;;;;;;;0.00;0.00;;;20.70;99.90;;;;;;5085473;28;20224;-72
2022/07/04 06:14:29;;;;;;;0.00;0.00;;;20.80;99.90;;;;;;5083526;28;20248;-70
2022/07/04 06:16:56;;;;;;;0.00;0.00;;;21.10;99.90;;;;;;5084034;28;20263;-73
2022/07/04 06:19:23;;;;;;;0.00;0.00;;;21.30;99.90;;;;;;5083069;28;20204;-71
2022/07/04 06:21:50;;;;;;;0.00;0.00;;;21.50;99.90;;;;;;5084369;28;20206;-73
2022/07/04 06:24:18;;;;;;;0.00;0.00;;;21.40;99.90;;;;;;5082690;28;20218;-72
2022/07/04 06:26:46;;;;;;;0.00;0.00;;;21.20;99.90;;;;;;5080978;28;20228;-72
2022/07/04 06:29:14;;;;;;;0.00;0.00;;;21.00;99.90;;;;;;5079433;28;20209;-69
2022/07/04 06:31:40;;;;;;;0.00;0.00;;;21.10;99.90;;;;;;5083780;28;20198;-71
2022/07/04 06:36:52;;;;;;;0.00;0.00;;;21.60;99.90;;;;;;5077972;28;20201;-72
2022/07/04 06:39:19;;;;;;;0.00;0.00;;;22.20;99.90;;;;;;5083686;28;20221;-71
2022/07/04 06:41:47;;;;;;;0.00;0.00;;;22.20;99.90;;;;;;5077823;28;20194;-72
2022/07/04 06:44:14;;;;;;;0.00;0.00;;;22.50;99.90;;;;;;5085860;28;20213;-72
2022/07/04 06:46:41;;;;;;;0.00;0.00;;;22.80;99.90;;;;;;5089290;28;20224;-72
2022/07/04 06:49:08;;;;;;;0.00;0.00;;;23.00;99.90;;;;;;5084359;28;20201;-74
2022/07/04 06:51:35;;;;;;;0.00;0.00;;;23.20;99.90;;;;;;5088404;28;20194;-73
2022/07/04 06:54:02;;;;;;;0.00;0.00;;;23.20;99.90;;;;;;5092370;28;20325;-73
2022/07/04 06:56:29;;;;;;;0.00;0.00;;;23.20;99.90;;;;;;5085657;28;20212;-73
2022/07/04 06:58:58;;;;;;;0.00;0.00;;;23.30;99.90;;;;;;5091174;28;20225;-73
2022/07/04 07:01:25;;;;;;;0.00;0.00;;;23.50;99.90;;;;;;5092678;28;20194;-73
2022/07/04 07:03:52;;;;;;;0.00;0.00;;;23.60;99.90;;;;;;5092509;28;20218;-73
2022/07/04 07:06:19;;;;;;;0.00;0.00;;;23.90;99.90;;;;;;5089259;28;20205;-73
2022/07/04 07:08:46;;;;;;;0.00;0.00;;;24.10;99.90;;;;;;5086005;28;20194;-73
2022/07/04 07:11:13;;;;;;;0.00;0.00;;;24.00;99.90;;;;;;5087057;28;20201;-72
2022/07/04 07:13:41;;;;;;;0.00;0.00;;;23.90;99.90;;;;;;5085771;28;20309;-73
2022/07/04 07:16:09;;;;;;;0.00;0.00;;;23.50;99.90;;;;;;5087030;28;20201;-73
2022/07/04 07:18:36;;;;;;;0.00;0.00;;;23.40;99.90;;;;;;5087004;28;20198;-73
2022/07/04 07:21:04;;;;;;;0.00;0.00;;;23.50;99.90;;;;;;5091664;28;20215;-73
2022/07/04 07:23:31;;;;;;;0.00;0.00;;;23.40;99.90;;;;;;5093836;28;20210;-73
2022/07/04 07:25:58;;;;;;;0.00;0.00;;;23.30;99.90;;;;;;5093939;28;20223;-73
2022/07/04 07:28:24;;;;;;;0.00;0.00;;;23.10;99.90;;;;;;5088839;28;20182;-74
2022/07/04 07:30:51;;;;;;;0.00;0.00;;;22.90;99.90;;;;;;5089650;28;20206;-73
2022/07/04 07:33:20;;;;;;;0.00;0.00;;;22.70;99.90;;;;;;5087100;28;20234;-76
2022/07/04 07:35:47;;;;;;;0.00;0.00;;;22.80;99.90;;;;;;5090339;28;20301;-75
2022/07/04 07:38:14;;;;;;;0.00;0.00;;;22.80;99.90;;;;;;5095693;28;20201;-73
2022/07/04 07:40:41;;;;;;;0.00;0.00;;;22.70;99.90;;;;;;5082756;28;20197;-76
2022/07/04 07:43:08;;;;;;;0.00;0.00;;;22.80;99.90;;;;;;5093470;28;20225;-74
2022/07/04 07:45:35;;;;;;;0.00;0.00;;;22.90;99.90;;;;;;5086365;28;20202;-73
2022/07/04 07:48:02;;;;;;;0.00;0.00;;;23.20;99.90;;;;;;5086327;28;20194;-75
2022/07/04 07:50:30;;;;;;;0.00;0.00;;;23.40;99.90;;;;;;5087039;28;20221;-75
2022/07/04 07:52:57;;;;;;;0.00;0.00;;;23.70;99.90;;;;;;5089216;28;20228;-72
2022/07/04 07:55:25;;;;;;;0.00;0.00;;;24.00;99.90;;;;;;5089784;28;20236;-72
2022/07/04 07:57:53;;;;;;;0.00;0.00;;;24.30;99.90;;;;;;5086512;28;20198;-75
2022/07/04 08:00:20;;;;;;;0.00;0.00;;;24.60;99.90;;;;;;5086107;28;20206;-74
2022/07/04 08:05:33;;;;;;;0.00;0.00;;;24.60;99.90;;;;;;5095484;28;20196;-73
2022/07/04 08:08:00;;;;;;;0.00;0.00;;;24.80;99.90;;;;;;5085446;28;20745;-74
2022/07/04 08:10:27;;;;;;;0.00;0.00;;;24.90;99.90;;;;;;5084049;28;20190;-75
2022/07/04 08:12:55;;;;;;;0.00;0.00;;;24.80;99.90;;;;;;5088547;28;20201;-74
2022/07/04 08:15:23;;;;;;;0.00;0.00;;;24.50;99.90;;;;;;5078291;28;20290;-73
2022/07/04 08:17:49;;;;;;;0.00;0.00;;;24.30;99.90;;;;;;5095692;28;20310;-75
2022/07/04 08:20:16;;;;;;;0.00;0.00;;;24.20;99.90;;;;;;5098325;28;20197;-73
2022/07/04 08:22:44;;;;;;;0.00;0.00;;;24.30;99.90;;;;;;5100226;28;20197;-72
2022/07/04 08:25:14;;;;;;;0.00;0.00;;;24.40;99.90;;;;;;5086420;28;20309;-74
2022/07/04 08:27:41;;;;;;;0.00;0.00;;;24.40;99.90;;;;;;5085209;28;20202;-74
2022/07/04 08:30:08;;;;;;;0.00;0.00;;;24.20;99.90;;;;;;5092328;28;20209;-75
2022/07/04 08:32:36;;;;;;;0.00;0.00;;;24.00;99.90;;;;;;5094967;28;20208;-73
2022/07/04 08:35:03;;;;;;;0.00;0.00;;;24.10;99.90;;;;;;5082586;28;20233;-73
2022/07/04 08:37:31;;;;;;;0.00;0.00;;;24.30;99.90;;;;;;5090821;28;20201;-75
2022/07/04 08:39:59;;;;;;;0.00;0.00;;;24.60;99.90;;;;;;5086640;28;20287;-73
2022/07/04 08:42:28;;;;;;;0.00;0.00;;;24.90;99.90;;;;;;5080360;28;20274;-72
2022/07/04 08:44:56;;;;;;;0.00;0.00;;;25.30;99.90;;;;;;5083565;28;20218;-75
2022/07/04 08:47:24;;;;;;;0.00;0.00;;;25.30;99.90;;;;;;5087425;28;20194;-75
2022/07/04 08:49:58;;;;;;;0.00;0.00;;;25.40;99.90;;;;;;5089500;28;20202;-74
2022/07/04 08:52:35;;;;;;;0.00;0.00;;;25.50;99.90;;;;;;5085670;28;20566;-73
2022/07/04 09:00:36;;;;;;;0.00;0.00;;;;;;;;;;5085265;28;20285;-76
2022/07/04 09:03:04;;;;;;;0.00;0.00;;;;;;;;;;5088442;28;20221;-70
2022/07/04 09:05:32;;;;;;;0.00;0.00;;;;;;;;;;5092785;28;20208;-71
2022/07/04 09:08:00;;;;;;;0.00;0.00;;;;;;;;;;5096850;28;20217;-71
2022/07/04 09:10:29;;;;;;;0.00;0.00;;;;;;;;;;5097516;28;20200;-70
2022/07/04 09:12:56;;;;;;;0.00;0.00;;;;;;;;;;5095866;28;20226;-72
2022/07/04 09:15:24;;;;;;;0.00;0.00;;;;;;;;;;5074080;28;20327;-71
2022/07/04 09:17:52;;;;;;;0.00;0.00;;;;;;;;;;5095135;28;20193;-71
2022/07/04 09:20:20;;;;;;;0.00;0.00;;;;;;;;;;5094363;28;20224;-72
2022/07/04 09:22:47;;;;;;;0.00;0.00;;;;;;;;;;5092180;28;20197;-72
2022/07/04 09:25:16;;;;;;;0.00;0.00;;;;;;;;;;5086480;28;20198;-71
2022/07/04 09:27:47;;;;;;;0.00;0.00;;;;;;;;;;5083239;28;20206;-72
2022/07/04 09:30:15;;;;;;;0.00;0.00;;;;;;;;;;5083779;28;20205;-71
2022/07/04 09:32:43;;;;;;;0.00;0.00;;;;;;;;;;5085466;28;20209;-71
2022/07/04 09:35:11;;;;;;;0.00;0.00;;;;;;;;;;5085005;28;20222;-72
2022/07/04 09:37:39;;;;;;;0.00;0.00;;;;;;;;;;5087730;28;20194;-72
2022/07/04 09:40:09;;;;;;;0.00;0.00;;;;;;;;;;5084668;28;20953;-72
2022/07/04 09:42:40;;;;;;;0.00;0.00;;;;;;;;;;5084410;28;20226;-71
2022/07/04 09:45:10;;;;;;;0.00;0.00;;;;;;;;;;5084156;28;20208;-70
2022/07/04 09:47:38;;;;;;;0.00;0.00;;;;;;;;;;5077533;28;20230;-71
2022/07/04 09:50:07;;;;;;;0.00;0.00;;;;;;;;;;5085942;28;20206;-70
2022/07/04 09:52:44;;;;;;;0.00;0.00;;;;;;;;;;5082988;28;20200;-70
2022/07/04 09:55:12;;;;;;;0.00;0.00;;;;;;;;;;5102318;27;20229;-70
2022/07/04 09:57:39;;;;;;;0.00;0.00;;;;;;;;;;5080518;28;20205;-70
2022/07/04 10:00:22;;;;;;;0.00;0.00;;;;;;;;;;5088547;28;20204;-73
2022/07/04 10:02:50;;;;;;;0.00;0.00;;;;;;;;;;5086854;28;20267;-71
2022/07/04 10:05:25;;;;;;;0.00;0.00;;;;;;;;;;5085543;28;20193;-72
2022/07/04 10:07:52;;;;;;;0.00;0.00;;;;;;;;;;5083455;28;20598;-72
2022/07/04 10:10:33;;;;;;;0.00;0.00;;;;;;;;;;5083782;28;20225;-71
2022/07/04 10:13:01;;;;;;;0.00;0.00;;;;;;;;;;5077638;28;20674;-71
2022/07/04 10:15:30;;;;;;;0.00;0.00;;;;;;;;;;5083299;28;20772;-72
2022/07/04 10:17:58;;;;;;;0.00;0.00;;;;;;;;;;5085406;28;20194;-71
2022/07/04 10:20:25;;;;;;;0.00;0.00;;;;;;;;;;5081112;28;20555;-71
2022/07/04 10:22:53;;;;;;;0.00;0.00;;;;;;;;;;5083806;28;20216;-72
2022/07/04 10:25:20;;;;;;;0.00;0.00;;;;;;;;;;5084873;28;20190;-75
2022/07/04 10:27:50;;;;;;;0.00;0.00;;;;;;;;;;5079483;28;20198;-70
2022/07/04 10:30:18;;;;;;;0.00;0.00;;;;;;;;;;5083392;28;20592;-72
2022/07/04 10:32:47;;;;;;;0.00;0.00;;;;;;;;;;5082480;28;20197;-72
2022/07/04 10:35:15;;;;;;;0.00;0.00;;;;;;;;;;5084441;28;20228;-70
2022/07/04 10:38:02;;;;;;;0.00;0.00;;;;;;;;;;5083864;28;20228;-70
2022/07/04 10:40:49;;;;;;;0.00;0.00;;;;;;;;;;5078282;28;20198;-71
2022/07/04 10:43:50;;;;;;;0.00;0.00;;;;;;;;;;5084797;28;20206;-70
2022/07/04 10:46:24;;;;;;;0.00;0.00;;;;;;;;;;5082432;28;20194;-70
2022/07/04 10:48:53;;;;;;;0.00;0.00;;;;;;;;;;5089053;28;20200;-70
2022/07/04 10:51:33;;;;;;;0.00;0.00;;;;;;;;;;5084256;28;20220;-70
2022/07/04 10:54:01;;;;;;;0.00;0.00;;;;;;;;;;5095589;28;20320;-72
2022/07/04 10:56:36;;;;;;;0.00;0.00;;;;;;;;;;5086337;28;20198;-73
2022/07/04 10:59:08;;;;;;;0.00;0.00;;;27.80;99.90;;;;;;5092865;28;20253;-70
2022/07/04 11:01:35;;;;;;;0.00;0.00;;;27.70;99.90;;;;;;5089521;28;20194;-71
2022/07/04 11:04:04;;;;;;;0.00;0.00;;;27.60;99.90;;;;;;5091807;28;20229;-70
2022/07/04 11:06:52;;;;;;;0.00;0.00;;;27.60;99.90;;;;;;5083289;28;20201;-71
2022/07/04 11:09:20;;;;;;;0.00;0.00;;;27.50;99.90;;;;;;5085471;28;20243;-71
2022/07/04 11:11:49;;;;;;;0.00;0.00;;;27.60;99.90;;;;;;5086471;28;20201;-70
2022/07/04 11:14:47;;;;;;;0.00;0.00;;;27.70;99.90;;;;;;5083686;28;20222;-71
2022/07/04 11:17:16;;;;;;;0.00;0.00;;;27.80;99.90;;;;;;5017645;28;20196;-71
2022/07/04 11:19:44;;;;;;;0.00;0.00;;;27.90;99.90;;;;;;5070287;28;20205;-72
2022/07/04 11:22:12;;;;;;;0.00;0.00;;;27.90;99.90;;;;;;5081966;28;20222;-73
2022/07/04 11:24:40;;;;;;;0.00;0.00;;;28.00;99.90;;;;;;5079412;28;20238;-71
2022/07/04 11:27:09;;;;;;;0.00;0.00;;;28.10;99.90;;;;;;5096033;28;20198;-70
2022/07/04 11:29:36;;;;;;;0.00;0.00;;;28.20;99.90;;;;;;5094012;28;20198;-71
2022/07/04 11:32:07;;;;;;;0.00;0.00;;;28.30;99.90;;;;;;5087241;28;20206;-71
2022/07/04 11:34:34;;;;;;;0.00;0.00;;;28.30;99.90;;;;;;5085886;28;20222;-71
2022/07/04 11:37:04;;;;;;;0.00;0.00;;;28.20;99.90;;;;;;5092482;28;20202;-73
2022/07/04 11:39:31;;;;;;;0.00;0.00;;;27.90;99.90;;;;;;5082986;28;20263;-71
2022/07/04 11:45:04;;;;;;;0.00;0.00;;;27.80;99.90;;;;;;5079569;28;20240;-71
2022/07/04 11:47:36;;;;;;;0.00;0.00;;;27.90;99.90;;;;;;5107611;28;21025;-72
2022/07/04 11:50:05;;;;;;;0.00;0.00;;;28.10;99.90;;;;;;5088420;28;20301;-71
2022/07/04 11:52:41;;;;;;;0.00;0.00;;;28.20;99.90;;;;;;5084261;28;20209;-70
2022/07/04 11:55:10;;;;;;;0.00;0.00;;;28.30;99.90;;;;;;5087567;28;20221;-71
2022/07/04 11:57:38;;;;;;;0.00;0.00;;;28.40;99.90;;;;;;5083530;28;20224;-70
2022/07/04 12:00:08;;;;;;;0.00;0.00;;;28.40;99.90;;;;;;5085423;28;20199;-72
2022/07/04 12:02:36;;;;;;;0.00;0.00;;;28.40;99.90;;;;;;5086742;28;20209;-70
2022/07/04 12:05:04;;;;;;;0.00;0.00;;;28.40;99.90;;;;;;5089975;28;20272;-72
2022/07/04 12:07:34;;;;;;;0.00;0.00;;;28.60;99.90;;;;;;5082146;28;20206;-70
2022/07/04 12:10:10;;;;;;;0.00;0.00;;;28.80;99.90;;;;;;5096497;28;20292;-71
2022/07/04 12:12:51;;;;;;;0.00;0.00;;;28.90;99.90;;;;;;5086863;28;20205;-73
2022/07/04 12:15:19;;;;;;;0.00;0.00;;;;;;;;;;5087316;28;20210;-70
2022/07/04 12:17:49;;;;;;;0.00;0.00;;;29.10;99.90;;;;;;5088052;28;20197;-70
2022/07/04 12:20:18;;;;;;;0.00;0.00;;;29.20;99.90;;;;;;5083275;28;20221;-70
2022/07/04 12:22:51;;;;;;;0.00;0.00;;;28.90;99.90;;;;;;5093315;28;20201;-71
2022/07/04 12:25:28;;;;;;;0.00;0.00;;;28.60;99.90;;;;;;5090430;28;20197;-73
2022/07/04 12:27:58;;;;;;;0.00;0.00;;;28.10;99.90;;;;;;5081280;28;20198;-70
2022/07/04 12:30:27;;;;;;;0.00;0.00;;;27.80;99.90;;;;;;5087092;28;20221;-70
2022/07/04 12:32:59;;;;;;;0.00;0.00;;;27.50;99.90;;;;;;5086687;28;20198;-71
2022/07/04 12:35:47;;;;;;;0.00;0.00;;;27.40;99.90;;;;;;5091131;28;20620;-71
2022/07/04 12:38:16;;;;;;;0.00;0.00;;;27.30;99.90;;;;;;5096472;28;20284;-72
2022/07/04 12:41:11;;;;;;;0.00;0.00;;;27.10;99.90;;;;;;5088119;28;20224;-71
2022/07/04 12:43:50;;;;;;;0.00;0.00;;;27.00;99.90;;;;;;5072757;28;20214;-71
2022/07/04 12:46:29;;;;;;;0.00;0.00;;;26.90;99.90;;;;;;5095302;28;20197;-71
2022/07/04 12:48:57;;;;;;;0.00;0.00;;;26.90;99.90;;;;;;5087924;28;20202;-71
2022/07/04 12:51:27;;;;;;;0.00;0.00;;;26.70;99.90;;;;;;5085088;28;20206;-71
2022/07/04 12:53:56;;;;;;;0.00;0.00;;;26.60;99.90;;;;;;5081841;28;20301;-72
2022/07/04 12:56:32;;;;;;;0.00;0.00;;;26.60;99.90;;;;;;5085906;28;20232;-70
2022/07/04 12:59:01;;;;;;;0.00;0.00;;;26.60;99.90;;;;;;5084651;28;20216;-69
2022/07/04 13:01:28;;;;;;;0.00;0.00;;;26.70;99.90;;;;;;5085271;28;20611;-70
2022/07/04 13:03:55;;;;;;;0.00;0.00;;;26.60;99.90;;;;;;5090587;28;20221;-70
2022/07/04 13:06:23;;;;;;;0.00;0.00;;;26.50;99.90;;;;;;5097553;28;20276;-71
2022/07/04 13:08:50;;;;;;;0.00;0.00;;;26.40;99.90;;;;;;5100160;28;20193;-71
2022/07/04 13:14:15;;;;;;;0.00;0.00;;;26.50;99.90;;;;;;5026323;28;20223;-71
2022/07/04 13:16:42;;;;;;;0.00;0.00;;;26.60;99.90;;;;;;5067172;28;20218;-71
2022/07/04 13:19:09;;;;;;;0.00;0.00;;;26.70;99.90;;;;;;5085434;28;20208;-72
2022/07/04 13:21:36;;;;;;;0.00;0.00;;;26.70;99.90;;;;;;5092452;28;20208;-72
2022/07/04 13:24:04;;;;;;;0.00;0.00;;;26.80;99.90;;;;;;5094364;28;20226;-71
2022/07/04 13:26:32;;;;;;;0.00;0.00;;;26.80;99.90;;;;;;5090360;28;20257;-70
2022/07/04 13:29:00;;;;;;;0.00;0.00;;;26.70;99.90;;;;;;5074727;28;20226;-70
2022/07/04 13:31:29;;;;;;;0.00;0.00;;;26.60;99.90;;;;;;5076018;28;20194;-71
2022/07/04 13:33:57;;;;;;;0.00;0.00;;;26.50;99.90;;;;;;5082020;28;20222;-71
2022/07/04 13:36:24;;;;;;;0.00;0.00;;;26.50;99.90;;;;;;5084509;28;20224;-71
2022/07/04 13:38:51;;;;;;;0.00;0.00;;;26.40;99.90;;;;;;5080631;28;20194;-71
2022/07/04 13:41:18;;;;;;;0.00;0.00;;;26.40;99.90;;;;;;5086020;28;20198;-70